sensor_id;sensor_type;location;lat;lon;timestamp;P1;durP1;ratioP1;P2;durP2;ratioP2
13374;SDS011;6756;51.354;15.754;2023-04-30T00:03:06;25.43;;;19.73;;
13374;SDS011;6756;51.354;15.754;2023-04-30T00:07:13;24.33;;;19.27;;
13374;SDS011;6756;51.354;15.754;2023-04-30T00:11:31;29.83;;;20.03;;
13374;SDS011;6756;51.354;15.754;2023-04-30T00:15:35;20.77;;;16.40;;
13374;SDS011;6756;51.354;15.754;2023-04-30T00:19:36;24.53;;;18.47;;
13374;SDS011;6756;51.354;15.754;2023-04-30T00:23:58;27.97;;;20.73;;
13374;SDS011;6756;51.354;15.754;2023-04-30T00:28:18;31.53;;;22.33;;
13374;SDS011;6756;51.354;15.754;2023-04-30T00:32:20;30.17;;;22.27;;
13374;SDS011;6756;51.354;15.754;2023-04-30T00:36:24;28.70;;;21.83;;
13374;SDS011;6756;51.354;15.754;2023-04-30T00:40:32;29.70;;;21.37;;
13374;SDS011;6756;51.354;15.754;2023-04-30T00:44:36;29.53;;;23.27;;
13374;SDS011;6756;51.354;15.754;2023-04-30T00:49:04;30.87;;;22.83;;
13374;SDS011;6756;51.354;15.754;2023-04-30T00:53:14;35.70;;;26.03;;
13374;SDS011;6756;51.354;15.754;2023-04-30T00:57:16;34.93;;;25.77;;
13374;SDS011;6756;51.354;15.754;2023-04-30T01:01:23;36.13;;;24.37;;
13374;SDS011;6756;51.354;15.754;2023-04-30T01:05:28;32.93;;;25.00;;
13374;SDS011;6756;51.354;15.754;2023-04-30T01:09:29;32.73;;;25.57;;
13374;SDS011;6756;51.354;15.754;2023-04-30T01:13:36;33.00;;;25.47;;
13374;SDS011;6756;51.354;15.754;2023-04-30T01:22:04;27.00;;;22.33;;
13374;SDS011;6756;51.354;15.754;2023-04-30T01:26:17;32.83;;;23.70;;
13374;SDS011;6756;51.354;15.754;2023-04-30T01:30:32;32.03;;;23.23;;
13374;SDS011;6756;51.354;15.754;2023-04-30T01:34:40;33.10;;;22.97;;
13374;SDS011;6756;51.354;15.754;2023-04-30T01:43:04;32.33;;;25.00;;
13374;SDS011;6756;51.354;15.754;2023-04-30T01:55:57;34.13;;;24.90;;
13374;SDS011;6756;51.354;15.754;2023-04-30T02:00:04;36.40;;;25.63;;
13374;SDS011;6756;51.354;15.754;2023-04-30T02:04:16;37.50;;;27.47;;
13374;SDS011;6756;51.354;15.754;2023-04-30T02:08:20;38.47;;;26.50;;
13374;SDS011;6756;51.354;15.754;2023-04-30T02:12:21;39.00;;;27.53;;
13374;SDS011;6756;51.354;15.754;2023-04-30T02:16:30;39.33;;;27.53;;
13374;SDS011;6756;51.354;15.754;2023-04-30T02:20:33;37.50;;;28.27;;
13374;SDS011;6756;51.354;15.754;2023-04-30T02:24:34;37.47;;;28.17;;
13374;SDS011;6756;51.354;15.754;2023-04-30T02:28:38;34.60;;;25.80;;
13374;SDS011;6756;51.354;15.754;2023-04-30T02:32:39;31.47;;;24.67;;
13374;SDS011;6756;51.354;15.754;2023-04-30T02:36:54;32.03;;;23.60;;
13374;SDS011;6756;51.354;15.754;2023-04-30T02:40:55;30.70;;;22.50;;
13374;SDS011;6756;51.354;15.754;2023-04-30T02:45:03;31.83;;;23.53;;
13374;SDS011;6756;51.354;15.754;2023-04-30T02:49:04;27.73;;;21.13;;
13374;SDS011;6756;51.354;15.754;2023-04-30T02:53:05;23.07;;;19.00;;
13374;SDS011;6756;51.354;15.754;2023-04-30T02:57:14;23.67;;;19.20;;
13374;SDS011;6756;51.354;15.754;2023-04-30T03:01:21;27.10;;;19.83;;
13374;SDS011;6756;51.354;15.754;2023-04-30T03:05:25;23.27;;;18.67;;
13374;SDS011;6756;51.354;15.754;2023-04-30T03:09:33;22.23;;;18.50;;
13374;SDS011;6756;51.354;15.754;2023-04-30T03:13:34;26.37;;;19.53;;
13374;SDS011;6756;51.354;15.754;2023-04-30T03:17:38;23.57;;;19.90;;
13374;SDS011;6756;51.354;15.754;2023-04-30T03:21:39;23.53;;;19.50;;
13374;SDS011;6756;51.354;15.754;2023-04-30T03:25:40;26.47;;;19.87;;
13374;SDS011;6756;51.354;15.754;2023-04-30T03:29:41;26.20;;;19.07;;
13374;SDS011;6756;51.354;15.754;2023-04-30T03:38:17;22.40;;;18.90;;
13374;SDS011;6756;51.354;15.754;2023-04-30T03:42:33;23.77;;;17.73;;
13374;SDS011;6756;51.354;15.754;2023-04-30T03:46:34;21.53;;;17.43;;
13374;SDS011;6756;51.354;15.754;2023-04-30T03:50:44;22.87;;;17.40;;
13374;SDS011;6756;51.354;15.754;2023-04-30T03:54:45;23.47;;;17.40;;
13374;SDS011;6756;51.354;15.754;2023-04-30T03:58:47;24.00;;;16.97;;
13374;SDS011;6756;51.354;15.754;2023-04-30T04:02:51;25.63;;;16.67;;
13374;SDS011;6756;51.354;15.754;2023-04-30T04:06:55;22.10;;;13.10;;
13374;SDS011;6756;51.354;15.754;2023-04-30T04:11:07;15.57;;;11.87;;
13374;SDS011;6756;51.354;15.754;2023-04-30T04:15:09;13.97;;;9.63;;
13374;SDS011;6756;51.354;15.754;2023-04-30T04:19:13;9.80;;;7.37;;
13374;SDS011;6756;51.354;15.754;2023-04-30T04:23:17;9.03;;;7.33;;
13374;SDS011;6756;51.354;15.754;2023-04-30T04:27:21;11.40;;;6.87;;
13374;SDS011;6756;51.354;15.754;2023-04-30T04:31:22;9.60;;;6.43;;
13374;SDS011;6756;51.354;15.754;2023-04-30T04:35:26;7.10;;;5.17;;
13374;SDS011;6756;51.354;15.754;2023-04-30T04:39:33;7.33;;;5.53;;
13374;SDS011;6756;51.354;15.754;2023-04-30T04:43:36;10.30;;;5.33;;
13374;SDS011;6756;51.354;15.754;2023-04-30T04:47:37;7.87;;;5.10;;
13374;SDS011;6756;51.354;15.754;2023-04-30T04:51:39;7.43;;;5.40;;
13374;SDS011;6756;51.354;15.754;2023-04-30T04:55:40;11.20;;;6.43;;
13374;SDS011;6756;51.354;15.754;2023-04-30T04:59:41;10.90;;;7.30;;
13374;SDS011;6756;51.354;15.754;2023-04-30T05:03:42;11.33;;;6.83;;
13374;SDS011;6756;51.354;15.754;2023-04-30T05:07:43;11.27;;;6.77;;
13374;SDS011;6756;51.354;15.754;2023-04-30T05:11:45;9.47;;;7.30;;
13374;SDS011;6756;51.354;15.754;2023-04-30T05:15:51;12.93;;;6.80;;
13374;SDS011;6756;51.354;15.754;2023-04-30T05:20:01;10.27;;;6.70;;
13374;SDS011;6756;51.354;15.754;2023-04-30T05:24:06;10.07;;;6.37;;
13374;SDS011;6756;51.354;15.754;2023-04-30T05:28:08;9.37;;;5.87;;
13374;SDS011;6756;51.354;15.754;2023-04-30T05:32:21;7.87;;;5.50;;
13374;SDS011;6756;51.354;15.754;2023-04-30T05:36:35;7.67;;;6.00;;
13374;SDS011;6756;51.354;15.754;2023-04-30T05:40:36;7.80;;;5.00;;
13374;SDS011;6756;51.354;15.754;2023-04-30T05:44:39;8.17;;;5.30;;
13374;SDS011;6756;51.354;15.754;2023-04-30T05:48:52;7.37;;;4.47;;
13374;SDS011;6756;51.354;15.754;2023-04-30T05:52:59;5.80;;;4.67;;
13374;SDS011;6756;51.354;15.754;2023-04-30T05:57:21;7.00;;;4.23;;
13374;SDS011;6756;51.354;15.754;2023-04-30T06:01:23;10.07;;;4.53;;
13374;SDS011;6756;51.354;15.754;2023-04-30T06:05:28;9.13;;;4.27;;
13374;SDS011;6756;51.354;15.754;2023-04-30T06:09:29;7.53;;;4.00;;
13374;SDS011;6756;51.354;15.754;2023-04-30T06:13:30;8.40;;;3.77;;
13374;SDS011;6756;51.354;15.754;2023-04-30T06:17:31;5.30;;;3.57;;
13374;SDS011;6756;51.354;15.754;2023-04-30T06:21:36;4.80;;;3.43;;
13374;SDS011;6756;51.354;15.754;2023-04-30T06:25:43;9.33;;;3.70;;
13374;SDS011;6756;51.354;15.754;2023-04-30T06:29:44;8.10;;;3.03;;
13374;SDS011;6756;51.354;15.754;2023-04-30T06:33:48;5.87;;;3.10;;
13374;SDS011;6756;51.354;15.754;2023-04-30T06:38:01;7.13;;;2.73;;
13374;SDS011;6756;51.354;15.754;2023-04-30T06:42:05;5.27;;;3.00;;
13374;SDS011;6756;51.354;15.754;2023-04-30T06:46:39;7.70;;;2.77;;
13374;SDS011;6756;51.354;15.754;2023-04-30T06:50:39;5.50;;;2.80;;
13374;SDS011;6756;51.354;15.754;2023-04-30T06:54:44;5.77;;;3.10;;
13374;SDS011;6756;51.354;15.754;2023-04-30T06:58:48;5.07;;;2.67;;
13374;SDS011;6756;51.354;15.754;2023-04-30T07:02:51;6.77;;;2.93;;
13374;SDS011;6756;51.354;15.754;2023-04-30T07:06:55;6.83;;;3.10;;
13374;SDS011;6756;51.354;15.754;2023-04-30T07:10:57;6.17;;;2.53;;
13374;SDS011;6756;51.354;15.754;2023-04-30T07:14:58;5.77;;;1.87;;
13374;SDS011;6756;51.354;15.754;2023-04-30T07:19:02;3.97;;;2.70;;
13374;SDS011;6756;51.354;15.754;2023-04-30T07:23:03;8.90;;;2.67;;
13374;SDS011;6756;51.354;15.754;2023-04-30T07:27:09;6.27;;;3.20;;
13374;SDS011;6756;51.354;15.754;2023-04-30T07:31:11;7.03;;;2.93;;
13374;SDS011;6756;51.354;15.754;2023-04-30T07:35:22;4.07;;;2.23;;
13374;SDS011;6756;51.354;15.754;2023-04-30T07:39:24;5.50;;;2.33;;
13374;SDS011;6756;51.354;15.754;2023-04-30T07:43:33;6.23;;;2.50;;
13374;SDS011;6756;51.354;15.754;2023-04-30T07:47:37;4.50;;;2.10;;
13374;SDS011;6756;51.354;15.754;2023-04-30T07:51:38;4.47;;;2.07;;
13374;SDS011;6756;51.354;15.754;2023-04-30T07:55:45;6.60;;;1.90;;
13374;SDS011;6756;51.354;15.754;2023-04-30T07:59:52;7.53;;;2.03;;
13374;SDS011;6756;51.354;15.754;2023-04-30T08:04:05;3.93;;;1.70;;
13374;SDS011;6756;51.354;15.754;2023-04-30T08:08:26;3.73;;;1.40;;
13374;SDS011;6756;51.354;15.754;2023-04-30T08:12:28;5.87;;;2.17;;
13374;SDS011;6756;51.354;15.754;2023-04-30T08:16:32;7.47;;;2.00;;
13374;SDS011;6756;51.354;15.754;2023-04-30T08:20:54;5.53;;;2.03;;
13374;SDS011;6756;51.354;15.754;2023-04-30T08:25:00;4.73;;;2.27;;
13374;SDS011;6756;51.354;15.754;2023-04-30T08:29:01;7.37;;;2.10;;
13374;SDS011;6756;51.354;15.754;2023-04-30T08:33:02;3.00;;;2.00;;
13374;SDS011;6756;51.354;15.754;2023-04-30T08:37:07;4.43;;;1.80;;
13374;SDS011;6756;51.354;15.754;2023-04-30T08:41:12;6.67;;;2.47;;
13374;SDS011;6756;51.354;15.754;2023-04-30T08:45:14;5.43;;;2.60;;
13374;SDS011;6756;51.354;15.754;2023-04-30T08:49:23;4.73;;;1.70;;
13374;SDS011;6756;51.354;15.754;2023-04-30T08:53:25;5.83;;;2.20;;
13374;SDS011;6756;51.354;15.754;2023-04-30T08:57:26;3.13;;;1.57;;
13374;SDS011;6756;51.354;15.754;2023-04-30T09:01:28;5.40;;;2.27;;
13374;SDS011;6756;51.354;15.754;2023-04-30T09:05:30;5.60;;;1.90;;
13374;SDS011;6756;51.354;15.754;2023-04-30T09:09:36;5.33;;;2.13;;
13374;SDS011;6756;51.354;15.754;2023-04-30T09:13:40;3.57;;;1.90;;
13374;SDS011;6756;51.354;15.754;2023-04-30T09:17:41;3.63;;;2.10;;
13374;SDS011;6756;51.354;15.754;2023-04-30T09:21:43;3.53;;;1.60;;
13374;SDS011;6756;51.354;15.754;2023-04-30T09:25:47;5.80;;;2.07;;
13374;SDS011;6756;51.354;15.754;2023-04-30T09:29:48;3.93;;;2.00;;
13374;SDS011;6756;51.354;15.754;2023-04-30T09:33:49;5.83;;;1.57;;
13374;SDS011;6756;51.354;15.754;2023-04-30T09:37:52;5.33;;;1.90;;
13374;SDS011;6756;51.354;15.754;2023-04-30T09:42:11;5.17;;;1.80;;
13374;SDS011;6756;51.354;15.754;2023-04-30T09:46:17;4.10;;;1.67;;
13374;SDS011;6756;51.354;15.754;2023-04-30T09:50:25;4.13;;;1.40;;
13374;SDS011;6756;51.354;15.754;2023-04-30T09:54:39;3.97;;;1.90;;
13374;SDS011;6756;51.354;15.754;2023-04-30T09:58:51;4.37;;;1.80;;
13374;SDS011;6756;51.354;15.754;2023-04-30T10:03:06;3.13;;;2.33;;
13374;SDS011;6756;51.354;15.754;2023-04-30T10:07:21;4.50;;;1.70;;
13374;SDS011;6756;51.354;15.754;2023-04-30T10:11:25;3.17;;;1.70;;
13374;SDS011;6756;51.354;15.754;2023-04-30T10:15:50;4.40;;;1.53;;
13374;SDS011;6756;51.354;15.754;2023-04-30T10:20:00;3.83;;;1.73;;
13374;SDS011;6756;51.354;15.754;2023-04-30T10:24:11;4.43;;;1.67;;
13374;SDS011;6756;51.354;15.754;2023-04-30T10:28:22;2.53;;;1.30;;
13374;SDS011;6756;51.354;15.754;2023-04-30T10:37:43;7.17;;;1.67;;
13374;SDS011;6756;51.354;15.754;2023-04-30T10:42:02;3.13;;;1.30;;
13374;SDS011;6756;51.354;15.754;2023-04-30T10:46:11;6.03;;;1.60;;
13374;SDS011;6756;51.354;15.754;2023-04-30T10:54:52;6.67;;;1.70;;
13374;SDS011;6756;51.354;15.754;2023-04-30T10:58:58;6.60;;;1.87;;
13374;SDS011;6756;51.354;15.754;2023-04-30T11:03:03;4.03;;;1.20;;
13374;SDS011;6756;51.354;15.754;2023-04-30T11:07:10;3.27;;;1.50;;
13374;SDS011;6756;51.354;15.754;2023-04-30T11:11:17;7.10;;;1.50;;
13374;SDS011;6756;51.354;15.754;2023-04-30T11:15:24;4.33;;;1.43;;
13374;SDS011;6756;51.354;15.754;2023-04-30T11:19:49;3.20;;;1.30;;
13374;SDS011;6756;51.354;15.754;2023-04-30T11:29:13;4.37;;;1.90;;
13374;SDS011;6756;51.354;15.754;2023-04-30T11:34:15;8.00;;;1.33;;
13374;SDS011;6756;51.354;15.754;2023-04-30T11:39:35;3.90;;;1.37;;
13374;SDS011;6756;51.354;15.754;2023-04-30T11:43:35;5.20;;;1.87;;
13374;SDS011;6756;51.354;15.754;2023-04-30T11:52:39;1.97;;;1.10;;
13374;SDS011;6756;51.354;15.754;2023-04-30T11:57:08;3.50;;;1.40;;
13374;SDS011;6756;51.354;15.754;2023-04-30T12:01:46;4.27;;;2.10;;
13374;SDS011;6756;51.354;15.754;2023-04-30T12:11:19;7.20;;;2.30;;
13374;SDS011;6756;51.354;15.754;2023-04-30T12:15:56;5.70;;;1.40;;
13374;SDS011;6756;51.354;15.754;2023-04-30T12:24:59;2.47;;;1.00;;
13374;SDS011;6756;51.354;15.754;2023-04-30T13:05:17;4.83;;;1.40;;
13374;SDS011;6756;51.354;15.754;2023-04-30T13:54:23;2.30;;;1.13;;
13374;SDS011;6756;51.354;15.754;2023-04-30T14:19:40;5.00;;;1.10;;
13374;SDS011;6756;51.354;15.754;2023-04-30T14:24:11;4.13;;;1.20;;
13374;SDS011;6756;51.354;15.754;2023-04-30T14:28:33;1.77;;;0.97;;
13374;SDS011;6756;51.354;15.754;2023-04-30T14:42:21;2.50;;;1.17;;
13374;SDS011;6756;51.354;15.754;2023-04-30T14:51:53;3.33;;;1.23;;
13374;SDS011;6756;51.354;15.754;2023-04-30T14:56:38;3.73;;;1.50;;
13374;SDS011;6756;51.354;15.754;2023-04-30T15:01:16;5.97;;;3.87;;
13374;SDS011;6756;51.354;15.754;2023-04-30T15:10:25;4.07;;;1.30;;
13374;SDS011;6756;51.354;15.754;2023-04-30T15:15:01;21.23;;;9.30;;
13374;SDS011;6756;51.354;15.754;2023-04-30T15:24:22;2.80;;;1.20;;
13374;SDS011;6756;51.354;15.754;2023-04-30T15:28:42;4.53;;;1.47;;
13374;SDS011;6756;51.354;15.754;2023-04-30T15:32:52;4.20;;;1.27;;
13374;SDS011;6756;51.354;15.754;2023-04-30T15:37:00;2.70;;;1.10;;
13374;SDS011;6756;51.354;15.754;2023-04-30T15:46:23;3.63;;;1.50;;
13374;SDS011;6756;51.354;15.754;2023-04-30T15:50:40;2.60;;;1.30;;
13374;SDS011;6756;51.354;15.754;2023-04-30T15:54:41;2.97;;;1.50;;
13374;SDS011;6756;51.354;15.754;2023-04-30T15:58:42;2.67;;;1.03;;
13374;SDS011;6756;51.354;15.754;2023-04-30T16:02:43;4.33;;;1.63;;
13374;SDS011;6756;51.354;15.754;2023-04-30T16:06:47;19.27;;;8.37;;
13374;SDS011;6756;51.354;15.754;2023-04-30T16:10:56;16.60;;;6.90;;
13374;SDS011;6756;51.354;15.754;2023-04-30T16:15:00;4.73;;;2.63;;
13374;SDS011;6756;51.354;15.754;2023-04-30T16:19:03;3.60;;;1.90;;
13374;SDS011;6756;51.354;15.754;2023-04-30T16:23:09;2.03;;;1.37;;
13374;SDS011;6756;51.354;15.754;2023-04-30T16:27:10;5.97;;;1.53;;
13374;SDS011;6756;51.354;15.754;2023-04-30T16:31:11;5.13;;;2.40;;
13374;SDS011;6756;51.354;15.754;2023-04-30T16:35:14;4.67;;;1.40;;
13374;SDS011;6756;51.354;15.754;2023-04-30T16:39:18;4.90;;;2.70;;
13374;SDS011;6756;51.354;15.754;2023-04-30T16:43:19;4.60;;;2.10;;
13374;SDS011;6756;51.354;15.754;2023-04-30T16:47:23;5.37;;;2.60;;
13374;SDS011;6756;51.354;15.754;2023-04-30T16:51:24;5.97;;;1.90;;
13374;SDS011;6756;51.354;15.754;2023-04-30T16:55:32;4.53;;;1.80;;
13374;SDS011;6756;51.354;15.754;2023-04-30T16:59:33;2.60;;;1.80;;
13374;SDS011;6756;51.354;15.754;2023-04-30T17:03:43;25.00;;;14.97;;
13374;SDS011;6756;51.354;15.754;2023-04-30T17:08:21;9.40;;;6.23;;
13374;SDS011;6756;51.354;15.754;2023-04-30T17:17:12;13.27;;;7.93;;
13374;SDS011;6756;51.354;15.754;2023-04-30T17:21:14;27.27;;;17.47;;
13374;SDS011;6756;51.354;15.754;2023-04-30T17:25:21;5.77;;;3.40;;
13374;SDS011;6756;51.354;15.754;2023-04-30T17:29:22;7.73;;;4.07;;
13374;SDS011;6756;51.354;15.754;2023-04-30T17:33:23;4.10;;;2.40;;
13374;SDS011;6756;51.354;15.754;2023-04-30T17:37:28;9.70;;;4.30;;
13374;SDS011;6756;51.354;15.754;2023-04-30T17:41:30;7.00;;;4.30;;
13374;SDS011;6756;51.354;15.754;2023-04-30T17:45:31;12.37;;;7.33;;
13374;SDS011;6756;51.354;15.754;2023-04-30T17:49:32;13.73;;;6.30;;
13374;SDS011;6756;51.354;15.754;2023-04-30T17:53:33;8.53;;;4.70;;
13374;SDS011;6756;51.354;15.754;2023-04-30T17:57:34;8.23;;;6.00;;
13374;SDS011;6756;51.354;15.754;2023-04-30T18:01:37;9.70;;;6.73;;
13374;SDS011;6756;51.354;15.754;2023-04-30T18:05:39;7.77;;;6.40;;
13374;SDS011;6756;51.354;15.754;2023-04-30T18:09:41;7.80;;;6.20;;
13374;SDS011;6756;51.354;15.754;2023-04-30T18:13:42;9.23;;;5.03;;
13374;SDS011;6756;51.354;15.754;2023-04-30T18:17:43;5.43;;;3.53;;
13374;SDS011;6756;51.354;15.754;2023-04-30T18:26:04;4.63;;;2.47;;
13374;SDS011;6756;51.354;15.754;2023-04-30T18:30:11;4.13;;;2.10;;
13374;SDS011;6756;51.354;15.754;2023-04-30T18:34:12;5.70;;;2.33;;
13374;SDS011;6756;51.354;15.754;2023-04-30T18:38:14;3.77;;;2.23;;
13374;SDS011;6756;51.354;15.754;2023-04-30T18:42:18;2.93;;;1.90;;
13374;SDS011;6756;51.354;15.754;2023-04-30T18:46:23;3.83;;;2.40;;
13374;SDS011;6756;51.354;15.754;2023-04-30T18:50:27;4.00;;;2.90;;
13374;SDS011;6756;51.354;15.754;2023-04-30T18:54:28;3.90;;;2.63;;
13374;SDS011;6756;51.354;15.754;2023-04-30T18:58:33;4.63;;;2.63;;
13374;SDS011;6756;51.354;15.754;2023-04-30T19:02:34;4.27;;;2.87;;
13374;SDS011;6756;51.354;15.754;2023-04-30T19:06:38;4.07;;;3.13;;
13374;SDS011;6756;51.354;15.754;2023-04-30T19:10:53;4.63;;;3.33;;
13374;SDS011;6756;51.354;15.754;2023-04-30T19:15:24;6.57;;;3.30;;
13374;SDS011;6756;51.354;15.754;2023-04-30T19:20:14;5.27;;;3.80;;
13374;SDS011;6756;51.354;15.754;2023-04-30T19:29:29;5.73;;;3.43;;
13374;SDS011;6756;51.354;15.754;2023-04-30T19:33:34;7.33;;;4.03;;
13374;SDS011;6756;51.354;15.754;2023-04-30T19:37:52;6.60;;;3.77;;
13374;SDS011;6756;51.354;15.754;2023-04-30T19:42:32;10.33;;;4.40;;
13374;SDS011;6756;51.354;15.754;2023-04-30T19:52:22;9.03;;;5.63;;
13374;SDS011;6756;51.354;15.754;2023-04-30T19:56:43;11.27;;;6.20;;
13374;SDS011;6756;51.354;15.754;2023-04-30T20:06:42;17.27;;;7.70;;
13374;SDS011;6756;51.354;15.754;2023-04-30T20:11:24;13.10;;;6.90;;
13374;SDS011;6756;51.354;15.754;2023-04-30T20:16:22;11.67;;;6.10;;
13374;SDS011;6756;51.354;15.754;2023-04-30T20:20:23;12.57;;;6.00;;
13374;SDS011;6756;51.354;15.754;2023-04-30T20:24:51;10.87;;;5.63;;
13374;SDS011;6756;51.354;15.754;2023-04-30T20:38:13;12.10;;;7.33;;
13374;SDS011;6756;51.354;15.754;2023-04-30T20:42:43;12.60;;;6.63;;
13374;SDS011;6756;51.354;15.754;2023-04-30T21:23:56;10.27;;;5.30;;
13374;SDS011;6756;51.354;15.754;2023-04-30T21:28:48;7.17;;;4.43;;
13374;SDS011;6756;51.354;15.754;2023-04-30T21:43:34;5.73;;;3.70;;
13374;SDS011;6756;51.354;15.754;2023-04-30T21:47:56;5.23;;;3.60;;
13374;SDS011;6756;51.354;15.754;2023-04-30T21:52:39;4.80;;;3.10;;
13374;SDS011;6756;51.354;15.754;2023-04-30T22:01:41;4.60;;;3.70;;
13374;SDS011;6756;51.354;15.754;2023-04-30T22:06:04;6.90;;;3.93;;
13374;SDS011;6756;51.354;15.754;2023-04-30T22:11:08;7.57;;;3.90;;
13374;SDS011;6756;51.354;15.754;2023-04-30T22:15:30;4.77;;;3.27;;
13374;SDS011;6756;51.354;15.754;2023-04-30T22:40:41;6.57;;;3.10;;
13374;SDS011;6756;51.354;15.754;2023-04-30T22:55:18;4.83;;;2.83;;
